Time;durP1;ratioP1;P1;durP2;ratioP2;P2;SDS_P1;SDS_P2;PMS_P1;PMS_P2;Temp;Humidity;BMP_temperature;BMP_pressure;BME280_temperature;BME280_humidity;BME280_pressure;Samples;Min_cycle;Max_cycle;Signal;HPM_P1;HPM_P2
2022/12/11 00:02:08;;;;;;;114.25;19.67;;;0.00;99.90;;;;;;5113997;27;20034;-45
2022/12/11 00:04:34;;;;;;;107.80;19.77;;;-0.10;99.90;;;;;;5130401;27;20042;-44
2022/12/11 00:07:00;;;;;;;111.20;19.80;;;-0.20;99.90;;;;;;5131327;27;20027;-44
2022/12/11 00:09:26;;;;;;;113.90;20.33;;;-0.40;99.90;;;;;;5131332;27;20463;-45
2022/12/11 00:11:51;;;;;;;94.72;20.67;;;0.00;99.90;;;;;;5130607;27;20092;-44
2022/12/11 00:14:17;;;;;;;104.10;19.40;;;-0.30;99.90;;;;;;5130763;27;20041;-45
2022/12/11 00:16:43;;;;;;;96.85;19.73;;;-0.60;99.90;;;;;;5130871;27;20099;-45
2022/12/11 00:19:08;;;;;;;107.40;21.35;;;-0.10;99.90;;;;;;5131795;27;20498;-47
2022/12/11 00:21:34;;;;;;;124.38;21.73;;;-0.50;99.90;;;;;;5132124;27;20035;-45
2022/12/11 00:24:00;;;;;;;116.15;20.75;;;-0.80;99.90;;;;;;5131880;27;20039;-43
2022/12/11 00:26:26;;;;;;;115.13;20.80;;;-0.60;99.90;;;;;;5131731;27;20031;-43
2022/12/11 00:28:54;;;;;;;108.78;20.48;;;-0.70;99.90;;;;;;5131491;27;20045;-43
2022/12/11 00:31:20;;;;;;;116.28;20.98;;;-0.40;99.90;;;;;;5131751;27;20039;-44
2022/12/11 00:33:50;;;;;;;106.57;20.25;;;-0.80;99.90;;;;;;5131264;27;20031;-45
2022/12/11 00:36:19;;;;;;;122.28;20.60;;;-0.20;99.90;;;;;;5131445;27;20035;-45
2022/12/11 00:38:45;;;;;;;124.53;20.88;;;-0.80;99.90;;;;;;5112109;27;20095;-44
2022/12/11 00:41:11;;;;;;;132.30;23.40;;;-0.40;99.90;;;;;;5131122;27;20846;-45
2022/12/11 00:43:37;;;;;;;131.85;21.75;;;0.10;99.90;;;;;;5131611;27;20038;-45
2022/12/11 00:46:03;;;;;;;114.32;21.05;;;-0.80;99.90;;;;;;5131196;27;20031;-46
2022/12/11 00:48:29;;;;;;;117.65;21.67;;;-0.10;99.90;;;;;;5131538;27;20367;-45
2022/12/11 00:50:55;;;;;;;114.93;21.27;;;-0.30;99.90;;;;;;5131361;27;20164;-44
2022/12/11 00:53:20;;;;;;;108.45;21.30;;;-0.70;99.90;;;;;;5130884;27;20513;-45
2022/12/11 00:55:46;;;;;;;131.70;23.33;;;0.00;99.90;;;;;;5131285;27;20051;-44
2022/12/11 00:58:12;;;;;;;130.10;22.25;;;-0.20;99.90;;;;;;5131341;27;20599;-45
2022/12/11 01:00:39;;;;;;;141.52;22.60;;;0.00;99.90;;;;;;5130918;27;20083;-45
2022/12/11 01:03:05;;;;;;;136.88;23.13;;;-0.40;99.90;;;;;;5130089;27;20031;-46
2022/12/11 01:05:31;;;;;;;142.07;23.98;;;-0.60;99.90;;;;;;5131003;27;20038;-44
2022/12/11 01:07:57;;;;;;;138.38;22.90;;;-0.70;99.90;;;;;;5130929;27;20027;-45
2022/12/11 01:10:22;;;;;;;143.15;23.73;;;-0.70;99.90;;;;;;5130817;27;20066;-45
2022/12/11 01:13:03;;;;;;;130.90;22.42;;;-0.40;99.90;;;;;;5131183;27;20039;-43
2022/12/11 01:15:31;;;;;;;139.75;23.40;;;0.00;99.90;;;;;;5130906;28;20091;-45
2022/12/11 01:17:57;;;;;;;125.10;22.73;;;0.00;99.90;;;;;;5131106;28;20043;-47
2022/12/11 01:20:24;;;;;;;125.28;24.13;;;-0.60;99.90;;;;;;5131045;28;20381;-44
2022/12/11 01:22:55;;;;;;;141.80;24.15;;;-0.70;99.90;;;;;;5115010;27;20054;-46
2022/12/11 01:25:21;;;;;;;141.23;22.90;;;-0.70;99.90;;;;;;5134700;27;20066;-44
2022/12/11 01:27:50;;;;;;;129.25;24.08;;;0.10;99.90;;;;;;5135443;27;20069;-46
2022/12/11 01:30:16;;;;;;;134.57;22.85;;;-0.10;99.90;;;;;;5135268;27;20485;-44
2022/12/11 01:32:42;;;;;;;146.93;23.73;;;-0.20;99.90;;;;;;5135123;27;20116;-44
2022/12/11 01:35:08;;;;;;;124.78;23.27;;;-0.70;99.90;;;;;;5135038;27;20474;-46
2022/12/11 01:37:34;;;;;;;137.63;23.25;;;-0.20;99.90;;;;;;5134326;27;20455;-46
2022/12/11 01:40:00;;;;;;;150.68;22.10;;;-0.60;99.90;;;;;;5134150;27;20100;-47
2022/12/11 01:42:28;;;;;;;133.48;23.13;;;-0.30;99.90;;;;;;5135179;27;20035;-44
2022/12/11 01:45:21;;;;;;;135.23;24.02;;;0.10;99.90;;;;;;5134506;27;20043;-46
2022/12/11 01:47:48;;;;;;;131.77;22.50;;;-0.50;99.90;;;;;;5134540;27;20046;-44
2022/12/11 01:50:14;;;;;;;139.93;24.63;;;-0.20;99.90;;;;;;5134540;27;20042;-46
2022/12/11 01:52:43;;;;;;;142.30;24.50;;;0.00;99.90;;;;;;5134631;27;20506;-46
2022/12/11 01:55:09;;;;;;;149.18;23.60;;;-0.20;99.90;;;;;;5134413;27;20047;-44
2022/12/11 01:57:42;;;;;;;142.52;25.85;;;0.00;99.90;;;;;;5134633;27;20050;-46
2022/12/11 02:00:08;;;;;;;158.90;24.98;;;0.10;99.90;;;;;;5134112;27;20039;-45
2022/12/11 02:02:34;;;;;;;153.93;24.35;;;-0.60;99.90;;;;;;5134207;27;20031;-45
2022/12/11 02:05:05;;;;;;;122.97;22.10;;;0.20;99.90;;;;;;5134787;27;20037;-45
2022/12/11 02:07:38;;;;;;;155.32;24.90;;;-0.60;99.90;;;;;;5115054;27;20039;-45
2022/12/11 02:10:05;;;;;;;133.50;23.53;;;0.20;99.90;;;;;;5134103;27;20054;-44
2022/12/11 02:12:41;;;;;;;149.27;23.95;;;-0.10;99.90;;;;;;5133087;27;20478;-44
2022/12/11 02:15:25;;;;;;;144.02;24.75;;;0.00;99.90;;;;;;5134181;27;20457;-45
2022/12/11 02:17:59;;;;;;;157.30;26.50;;;0.80;99.90;;;;;;5134489;27;20126;-44
2022/12/11 02:20:35;;;;;;;148.65;24.20;;;0.20;99.90;;;;;;5133467;27;20038;-47
2022/12/11 02:23:22;;;;;;;163.45;24.88;;;0.20;99.90;;;;;;5133735;27;20435;-44
2022/12/11 02:26:27;;;;;;;141.82;23.55;;;-0.40;99.90;;;;;;5133471;27;20103;-44
2022/12/11 02:29:00;;;;;;;135.70;22.67;;;-0.50;99.90;;;;;;5133253;27;20479;-44
2022/12/11 02:31:40;;;;;;;146.83;23.70;;;0.20;99.90;;;;;;5134157;27;20478;-44
2022/12/11 02:34:21;;;;;;;150.77;23.42;;;0.30;99.90;;;;;;5132348;27;20043;-48
2022/12/11 02:36:53;;;;;;;143.93;24.85;;;0.30;99.90;;;;;;5133334;27;20039;-47
2022/12/11 02:39:22;;;;;;;136.93;24.70;;;0.00;99.90;;;;;;5133938;27;20032;-44
2022/12/11 02:41:50;;;;;;;132.65;23.25;;;-0.40;99.90;;;;;;5133470;27;20035;-44
2022/12/11 02:44:20;;;;;;;135.30;22.73;;;0.20;99.90;;;;;;5115192;27;20034;-44
2022/12/11 02:46:46;;;;;;;129.02;22.02;;;-0.20;99.90;;;;;;5132089;27;20414;-47
2022/12/11 02:49:12;;;;;;;152.65;25.00;;;0.30;99.90;;;;;;5133419;27;20095;-45
2022/12/11 02:51:40;;;;;;;126.30;24.95;;;-0.40;99.90;;;;;;5133711;27;20531;-45
2022/12/11 02:54:15;;;;;;;148.80;25.05;;;0.00;99.90;;;;;;5133025;27;20055;-43
2022/12/11 02:56:49;;;;;;;144.02;25.17;;;-0.50;99.90;;;;;;5132799;27;20126;-44
2022/12/11 02:59:22;;;;;;;119.80;21.83;;;0.30;99.90;;;;;;5133030;27;20126;-45
2022/12/11 03:01:48;;;;;;;124.18;22.73;;;-0.20;99.90;;;;;;5133197;27;20042;-47
2022/12/11 03:04:14;;;;;;;120.70;23.08;;;0.10;99.90;;;;;;5133478;27;20114;-45
2022/12/11 03:06:46;;;;;;;128.65;24.77;;;-0.30;99.90;;;;;;5133310;27;20027;-45
2022/12/11 03:09:12;;;;;;;156.52;24.77;;;0.10;99.90;;;;;;5131144;27;20540;-46
2022/12/11 03:11:38;;;;;;;124.40;21.35;;;-0.20;99.90;;;;;;5131844;27;20039;-45
2022/12/11 03:14:04;;;;;;;99.00;21.38;;;-0.40;99.90;;;;;;5114980;27;20077;-45
2022/12/11 03:16:33;;;;;;;123.90;21.92;;;0.20;99.90;;;;;;5133016;27;20031;-46
2022/12/11 03:19:26;;;;;;;122.22;22.48;;;0.40;99.90;;;;;;5133045;27;20126;-46
2022/12/11 03:22:28;;;;;;;117.43;21.52;;;-0.20;99.90;;;;;;5132101;27;20043;-45
2022/12/11 03:25:15;;;;;;;139.18;23.83;;;0.20;99.90;;;;;;5078497;27;20066;-45
2022/12/11 03:27:51;;;;;;;116.88;21.90;;;0.50;99.90;;;;;;5133238;27;20031;-44
2022/12/11 03:30:19;;;;;;;117.68;21.92;;;-0.40;99.90;;;;;;5132811;27;20039;-44
2022/12/11 03:32:50;;;;;;;116.95;21.63;;;-0.40;99.90;;;;;;5132671;27;20075;-45
2022/12/11 03:35:37;;;;;;;136.80;23.02;;;0.50;99.90;;;;;;5131969;27;20031;-44
2022/12/11 03:38:10;;;;;;;119.30;22.05;;;0.50;99.90;;;;;;5132472;27;20501;-45
2022/12/11 03:40:38;;;;;;;107.47;21.30;;;0.40;99.90;;;;;;5132053;27;20051;-47
2022/12/11 03:43:05;;;;;;;130.68;23.08;;;0.00;99.90;;;;;;5132892;27;20118;-45
2022/12/11 03:45:32;;;;;;;128.57;22.65;;;0.20;99.90;;;;;;5112966;27;20062;-43
2022/12/11 03:47:59;;;;;;;138.25;22.52;;;-0.10;99.90;;;;;;5113126;27;20489;-44
2022/12/11 03:50:29;;;;;;;112.68;22.48;;;-0.10;99.90;;;;;;5132483;27;20039;-48
2022/12/11 03:52:56;;;;;;;105.63;21.98;;;0.40;99.90;;;;;;5132369;27;20085;-44
2022/12/11 03:55:23;;;;;;;107.55;20.58;;;-0.30;99.90;;;;;;5131924;27;20051;-45
2022/12/11 03:57:49;;;;;;;134.50;22.80;;;0.20;99.90;;;;;;5132173;27;20363;-45
2022/12/11 04:00:19;;;;;;;108.20;22.00;;;0.50;99.90;;;;;;5132260;27;20124;-45
2022/12/11 04:03:11;;;;;;;135.85;22.80;;;-0.30;99.90;;;;;;5131476;27;20039;-45
2022/12/11 04:05:30;;;;;;;130.93;21.40;;;0.30;99.90;;;;;;5131868;27;20092;-45
2022/12/11 04:07:56;;;;;;;112.25;22.85;;;0.50;99.90;;;;;;5131942;27;20043;-45
2022/12/11 04:10:21;;;;;;;122.95;22.08;;;0.30;99.90;;;;;;5131854;27;20056;-45
2022/12/11 04:12:47;;;;;;;140.48;23.27;;;0.50;99.90;;;;;;5113240;27;20104;-45
2022/12/11 04:15:13;;;;;;;118.13;21.30;;;0.40;99.90;;;;;;5131367;27;20039;-44
2022/12/11 04:26:07;;;;;;;109.85;20.73;;;-0.30;99.90;;;;;;5132262;27;20061;-46
2022/12/11 04:28:35;;;;;;;117.68;21.40;;;-0.30;99.90;;;;;;5131786;27;20046;-44
2022/12/11 04:31:01;;;;;;;117.15;22.30;;;-0.10;99.90;;;;;;5131898;27;20138;-44
2022/12/11 04:33:27;;;;;;;123.75;22.08;;;0.20;99.90;;;;;;5131596;27;20151;-44
2022/12/11 04:35:55;;;;;;;141.00;23.15;;;0.30;99.90;;;;;;5094816;27;20035;-44
2022/12/11 04:38:21;;;;;;;126.03;22.98;;;0.60;99.90;;;;;;5113181;27;20039;-45
2022/12/11 04:40:47;;;;;;;120.75;22.15;;;0.50;99.90;;;;;;5112987;27;20038;-45
2022/12/11 04:43:12;;;;;;;133.07;22.55;;;0.00;99.90;;;;;;5131524;27;20038;-45
2022/12/11 04:45:38;;;;;;;132.50;21.63;;;0.60;99.90;;;;;;5113120;27;20046;-44
2022/12/11 04:48:04;;;;;;;136.48;22.23;;;0.50;99.90;;;;;;5131167;27;20092;-44
2022/12/11 04:50:30;;;;;;;114.50;22.60;;;0.60;99.90;;;;;;5131301;27;20039;-45
2022/12/11 04:52:56;;;;;;;116.05;21.13;;;-0.10;99.90;;;;;;5131576;27;20131;-47
2022/12/11 04:55:22;;;;;;;118.10;22.35;;;-0.20;99.90;;;;;;5129656;27;20077;-45
2022/12/11 04:57:48;;;;;;;125.50;21.67;;;0.60;99.90;;;;;;5131023;27;20030;-46
2022/12/11 05:00:15;;;;;;;118.28;22.17;;;-0.20;99.90;;;;;;5130928;27;20049;-44
2022/12/11 05:02:41;;;;;;;132.32;23.13;;;0.10;99.90;;;;;;5131474;27;20035;-45
2022/12/11 05:05:08;;;;;;;122.13;21.23;;;0.60;99.90;;;;;;5130704;27;20043;-47
2022/12/11 05:07:35;;;;;;;141.05;22.25;;;0.00;99.90;;;;;;5131293;27;20042;-46
2022/12/11 05:10:01;;;;;;;133.68;22.95;;;0.60;99.90;;;;;;5130948;27;20046;-44
2022/12/11 05:12:27;;;;;;;123.60;22.10;;;0.30;99.90;;;;;;5112702;28;20042;-45
2022/12/11 05:14:53;;;;;;;128.30;23.50;;;0.60;99.90;;;;;;5131207;27;20043;-44
2022/12/11 05:17:20;;;;;;;112.28;22.52;;;0.60;99.90;;;;;;5130869;27;20093;-43
2022/12/11 05:19:47;;;;;;;119.28;21.70;;;0.10;99.90;;;;;;5130708;28;20039;-44
2022/12/11 05:22:14;;;;;;;133.88;23.35;;;-0.20;99.90;;;;;;5131224;28;20031;-44
2022/12/11 05:24:39;;;;;;;114.25;21.30;;;0.10;99.90;;;;;;5112483;28;20046;-46
2022/12/11 05:27:05;;;;;;;122.65;21.52;;;0.40;99.90;;;;;;5130815;28;20126;-45
2022/12/11 05:29:31;;;;;;;114.30;22.67;;;0.10;99.90;;;;;;5112317;28;20070;-44
2022/12/11 05:31:57;;;;;;;130.48;22.40;;;0.30;99.90;;;;;;5131126;28;20043;-44
2022/12/11 05:34:22;;;;;;;137.82;23.08;;;0.30;99.90;;;;;;5131139;28;20043;-46
2022/12/11 05:36:48;;;;;;;118.47;21.75;;;0.60;99.90;;;;;;5130918;28;20098;-44
2022/12/11 05:39:13;;;;;;;118.82;24.42;;;0.10;99.90;;;;;;5130863;28;20476;-44
2022/12/11 05:41:39;;;;;;;117.75;21.75;;;0.40;99.90;;;;;;5111863;28;20375;-45
2022/12/11 05:44:05;;;;;;;129.98;21.83;;;0.50;99.90;;;;;;5112445;28;20027;-44
2022/12/11 05:46:31;;;;;;;110.63;22.52;;;-0.10;99.90;;;;;;5112387;28;20033;-44
2022/12/11 05:48:59;;;;;;;120.60;22.08;;;-0.20;99.90;;;;;;5130933;28;20085;-45
2022/12/11 05:51:27;;;;;;;108.43;21.35;;;0.00;99.90;;;;;;5127962;28;20073;-43
2022/12/11 05:53:54;;;;;;;111.25;21.55;;;-0.10;99.90;;;;;;5130461;28;20094;-44
2022/12/11 05:56:27;;;;;;;102.35;20.55;;;0.50;99.90;;;;;;5129437;28;20465;-45
2022/12/11 05:58:54;;;;;;;87.32;20.05;;;0.50;99.90;;;;;;5129398;28;20040;-45
2022/12/11 06:01:41;;;;;;;125.10;22.70;;;-0.10;99.90;;;;;;5130758;28;20084;-45
2022/12/11 06:04:08;;;;;;;114.95;20.90;;;0.60;99.90;;;;;;5130354;28;20043;-46
2022/12/11 06:06:34;;;;;;;119.95;20.92;;;0.70;99.90;;;;;;5130316;28;20119;-44
2022/12/11 06:09:01;;;;;;;116.65;22.52;;;0.00;99.90;;;;;;5114298;27;20536;-46
2022/12/11 06:11:29;;;;;;;107.07;22.33;;;0.60;99.90;;;;;;5115538;27;20039;-46
2022/12/11 06:13:55;;;;;;;118.05;21.63;;;0.60;99.90;;;;;;5134469;27;20459;-46
2022/12/11 06:16:21;;;;;;;113.28;23.27;;;0.00;99.90;;;;;;5134263;27;20412;-44
2022/12/11 06:18:47;;;;;;;121.20;22.08;;;0.70;99.90;;;;;;5134019;27;20038;-44
2022/12/11 06:21:20;;;;;;;104.85;22.45;;;-0.20;99.90;;;;;;5134311;27;20027;-45
2022/12/11 06:23:47;;;;;;;117.70;21.58;;;0.50;99.90;;;;;;5134266;27;20367;-46
2022/12/11 06:26:14;;;;;;;106.80;21.85;;;-0.10;99.90;;;;;;5115543;27;20075;-48
2022/12/11 06:28:40;;;;;;;132.80;24.10;;;0.10;99.90;;;;;;5134150;27;20047;-46
2022/12/11 06:31:06;;;;;;;127.53;22.50;;;0.30;99.90;;;;;;5134141;27;20099;-45
2022/12/11 06:33:32;;;;;;;111.40;22.40;;;0.70;99.90;;;;;;5134052;27;20412;-45
2022/12/11 06:36:04;;;;;;;136.13;24.08;;;-0.10;99.90;;;;;;5133832;27;20031;-46
2022/12/11 06:38:30;;;;;;;119.20;21.48;;;0.40;99.90;;;;;;5133140;27;20039;-45
2022/12/11 06:40:58;;;;;;;129.88;23.67;;;0.50;99.90;;;;;;5133383;27;20067;-45
2022/12/11 06:43:24;;;;;;;119.47;21.92;;;0.70;99.90;;;;;;5133999;27;20367;-44
2022/12/11 06:45:50;;;;;;;112.22;21.98;;;0.50;99.90;;;;;;5133964;27;20497;-44
2022/12/11 06:48:17;;;;;;;114.63;23.52;;;-0.10;99.90;;;;;;5133813;27;20035;-45
2022/12/11 06:50:42;;;;;;;116.70;21.98;;;0.70;99.90;;;;;;5133688;27;20103;-46
2022/12/11 06:53:10;;;;;;;108.70;21.23;;;-0.10;99.90;;;;;;5115182;27;20031;-44
2022/12/11 06:55:36;;;;;;;126.68;22.17;;;-0.10;99.90;;;;;;5133250;27;20039;-46
2022/12/11 06:58:03;;;;;;;123.32;23.05;;;-0.10;99.90;;;;;;5131735;27;20033;-44
2022/12/11 07:00:29;;;;;;;117.95;22.67;;;-0.10;99.90;;;;;;5133469;27;20034;-44
2022/12/11 07:02:54;;;;;;;118.10;20.52;;;-0.10;99.90;;;;;;5133534;27;20482;-44
2022/12/11 07:05:20;;;;;;;118.88;22.30;;;0.70;99.90;;;;;;5133604;27;20065;-47
2022/12/11 07:07:46;;;;;;;122.05;22.95;;;1.30;99.90;;;;;;5133580;27;20035;-46
2022/12/11 07:10:11;;;;;;;135.48;23.30;;;0.00;99.90;;;;;;5132826;27;20035;-47
2022/12/11 07:12:37;;;;;;;117.57;22.00;;;0.10;99.90;;;;;;5133379;27;20059;-45
2022/12/11 07:15:04;;;;;;;115.22;23.23;;;-0.10;99.90;;;;;;5133454;27;20085;-45
2022/12/11 07:17:30;;;;;;;116.80;22.25;;;0.10;99.90;;;;;;5131880;27;20035;-47
2022/12/11 07:19:56;;;;;;;111.80;22.83;;;0.10;99.90;;;;;;5133125;27;20058;-43
2022/12/11 07:22:21;;;;;;;133.45;24.42;;;-0.10;99.90;;;;;;5133155;27;20555;-46
2022/12/11 07:24:47;;;;;;;139.07;24.60;;;0.70;99.90;;;;;;5133053;27;20379;-44
2022/12/11 07:27:13;;;;;;;116.55;22.08;;;0.00;99.90;;;;;;5132753;27;20114;-44
2022/12/11 07:29:38;;;;;;;105.97;23.17;;;0.70;99.90;;;;;;5133082;27;20047;-47
2022/12/11 07:32:05;;;;;;;125.82;22.63;;;0.70;99.90;;;;;;5132396;27;20038;-44
2022/12/11 07:34:30;;;;;;;116.60;22.05;;;0.60;99.90;;;;;;5132963;27;20031;-44
2022/12/11 07:36:56;;;;;;;120.38;22.27;;;0.40;99.90;;;;;;5132326;27;20035;-45
2022/12/11 07:39:22;;;;;;;111.95;22.90;;;0.50;99.90;;;;;;5132530;27;20482;-46
2022/12/11 07:41:48;;;;;;;112.13;21.77;;;0.30;99.90;;;;;;5113629;27;20103;-45
2022/12/11 07:44:14;;;;;;;120.63;23.42;;;0.60;99.90;;;;;;5132693;27;20031;-45
2022/12/11 07:46:40;;;;;;;105.55;22.23;;;0.30;99.90;;;;;;5132675;27;20462;-44
2022/12/11 07:49:05;;;;;;;121.63;22.48;;;0.00;99.90;;;;;;5132195;27;20474;-44
2022/12/11 07:51:34;;;;;;;107.82;21.73;;;0.60;99.90;;;;;;5132155;27;20041;-46
2022/12/11 07:54:03;;;;;;;121.00;23.33;;;0.80;99.90;;;;;;5131991;27;20047;-46
2022/12/11 07:56:31;;;;;;;107.53;20.00;;;0.70;99.90;;;;;;5131064;27;20067;-45
2022/12/11 07:59:02;;;;;;;109.72;21.92;;;0.50;99.90;;;;;;5113782;27;20042;-44
2022/12/11 08:01:30;;;;;;;99.03;20.65;;;0.40;99.90;;;;;;5132377;27;20390;-44
2022/12/11 08:03:56;;;;;;;100.40;21.50;;;0.30;99.90;;;;;;5113934;27;20031;-45
2022/12/11 08:06:28;;;;;;;110.15;23.15;;;0.80;99.90;;;;;;5132312;27;20378;-44
2022/12/11 08:08:55;;;;;;;119.15;23.25;;;0.20;99.90;;;;;;5131851;27;20039;-44
2022/12/11 08:11:21;;;;;;;105.72;21.73;;;0.70;99.90;;;;;;5131776;27;20035;-45
2022/12/11 08:13:47;;;;;;;114.32;22.05;;;0.80;99.90;;;;;;5132015;27;20034;-46
2022/12/11 08:16:14;;;;;;;114.10;22.85;;;0.10;99.90;;;;;;5132236;27;20049;-47
2022/12/11 08:18:41;;;;;;;119.60;22.27;;;0.00;99.90;;;;;;5111497;27;20043;-46
2022/12/11 08:21:15;;;;;;;107.05;23.13;;;0.70;99.90;;;;;;5131887;27;20427;-44
2022/12/11 08:23:41;;;;;;;116.88;22.30;;;0.80;99.90;;;;;;5113603;27;20031;-44
2022/12/11 08:26:10;;;;;;;109.53;21.65;;;0.70;99.90;;;;;;5131529;27;20062;-44
2022/12/11 08:28:36;;;;;;;100.65;21.02;;;0.00;99.90;;;;;;5131391;27;20041;-47
2022/12/11 08:31:07;;;;;;;115.38;22.63;;;0.30;99.90;;;;;;5112904;27;20031;-45
2022/12/11 08:33:34;;;;;;;105.78;22.10;;;0.10;99.90;;;;;;5131340;27;20094;-45
2022/12/11 08:36:07;;;;;;;106.13;22.23;;;0.50;99.90;;;;;;5131897;27;20118;-48
2022/12/11 08:38:33;;;;;;;109.45;21.75;;;0.70;99.90;;;;;;5130777;27;20091;-44
2022/12/11 08:41:06;;;;;;;103.40;22.55;;;0.30;99.90;;;;;;5113172;27;20047;-46
2022/12/11 08:43:32;;;;;;;99.18;22.33;;;0.50;99.90;;;;;;5096255;27;20052;-46
2022/12/11 08:45:58;;;;;;;108.80;21.27;;;0.30;99.90;;;;;;5106383;27;20031;-45
2022/12/11 08:48:24;;;;;;;111.97;23.63;;;0.90;99.90;;;;;;5131069;27;20035;-43
2022/12/11 08:50:50;;;;;;;121.50;23.88;;;0.20;99.90;;;;;;5128627;27;20118;-46
2022/12/11 08:53:15;;;;;;;110.32;23.33;;;0.60;99.90;;;;;;5130286;27;20044;-44
2022/12/11 08:55:41;;;;;;;112.60;23.55;;;0.20;99.90;;;;;;5130973;27;20079;-46
2022/12/11 08:58:07;;;;;;;111.68;23.08;;;0.40;99.90;;;;;;5128608;27;20083;-48
2022/12/11 09:00:33;;;;;;;98.18;21.05;;;0.10;99.90;;;;;;5130069;27;20035;-44
2022/12/11 09:02:58;;;;;;;90.55;21.27;;;0.20;99.90;;;;;;5125485;27;20039;-46
2022/12/11 09:05:24;;;;;;;93.28;22.35;;;0.50;99.90;;;;;;5098950;28;20168;-45
2022/12/11 09:07:50;;;;;;;102.07;21.92;;;0.60;99.90;;;;;;5121566;27;20482;-44
2022/12/11 09:10:15;;;;;;;110.13;23.08;;;0.70;99.90;;;;;;5121869;27;20505;-47
2022/12/11 09:12:41;;;;;;;107.90;23.23;;;0.20;99.90;;;;;;5119265;27;20081;-47
2022/12/11 09:15:07;;;;;;;97.18;21.90;;;0.90;99.90;;;;;;5103375;28;20031;-44
2022/12/11 09:17:34;;;;;;;101.47;22.90;;;0.40;99.90;;;;;;5117640;28;20066;-46
2022/12/11 09:19:59;;;;;;;105.10;22.65;;;0.20;99.90;;;;;;5121260;28;20038;-45
2022/12/11 09:22:25;;;;;;;108.22;23.50;;;0.50;99.90;;;;;;5122776;28;20605;-46
2022/12/11 09:24:51;;;;;;;113.65;24.13;;;0.60;99.90;;;;;;5123457;28;20501;-46
2022/12/11 09:27:16;;;;;;;121.30;23.42;;;0.30;99.90;;;;;;5103627;28;20038;-45
2022/12/11 09:29:42;;;;;;;113.43;25.02;;;0.20;99.90;;;;;;5120232;28;20047;-45
2022/12/11 09:32:08;;;;;;;112.57;20.75;;;0.60;99.90;;;;;;5118803;28;20035;-45
2022/12/11 09:34:33;;;;;;;103.53;22.45;;;0.20;99.90;;;;;;5116864;28;20035;-45
2022/12/11 09:36:59;;;;;;;103.40;22.92;;;0.40;99.90;;;;;;5119265;28;20355;-46
2022/12/11 09:39:25;;;;;;;115.70;24.35;;;1.00;99.90;;;;;;5118754;28;20043;-44
2022/12/11 09:42:12;;;;;;;114.07;24.08;;;0.90;99.90;;;;;;5097468;27;20032;-44
2022/12/11 09:44:44;;;;;;;105.22;23.27;;;0.70;99.90;;;;;;5123866;27;20110;-46
2022/12/11 09:47:24;;;;;;;103.18;22.55;;;0.40;99.90;;;;;;5122809;27;20371;-45
2022/12/11 09:50:11;;;;;;;98.13;22.27;;;1.00;99.90;;;;;;5123404;27;20082;-45
2022/12/11 09:52:51;;;;;;;117.15;24.13;;;0.30;99.90;;;;;;5104348;27;20062;-43
2022/12/11 09:55:23;;;;;;;105.60;23.05;;;0.40;99.90;;;;;;5122571;27;20103;-45
2022/12/11 09:57:48;;;;;;;117.68;22.92;;;0.30;99.90;;;;;;5124242;27;20039;-45
2022/12/11 10:00:45;;;;;;;120.68;23.55;;;0.40;99.90;;;;;;5122036;27;20050;-45
2022/12/11 10:03:16;;;;;;;97.07;22.48;;;1.10;99.90;;;;;;5111620;27;20054;-44
2022/12/11 10:05:54;;;;;;;97.75;21.95;;;1.00;99.90;;;;;;5122524;27;20066;-46
2022/12/11 10:08:32;;;;;;;98.97;22.20;;;1.10;99.90;;;;;;5123401;27;20031;-45
2022/12/11 10:11:04;;;;;;;97.68;21.73;;;1.00;99.90;;;;;;5122450;27;20039;-45
2022/12/11 10:13:51;;;;;;;90.40;21.23;;;1.10;99.90;;;;;;5121494;27;20039;-45
2022/12/11 10:16:39;;;;;;;112.95;22.25;;;0.80;99.90;;;;;;5123797;27;20092;-45
2022/12/11 10:19:04;;;;;;;109.35;23.75;;;1.20;99.90;;;;;;5123443;27;20466;-45
2022/12/11 10:21:38;;;;;;;97.38;21.83;;;1.10;99.90;;;;;;5122737;27;20067;-47
2022/12/11 10:24:30;;;;;;;108.07;22.92;;;0.40;99.90;;;;;;5120174;27;20043;-45
2022/12/11 10:27:00;;;;;;;103.00;22.75;;;1.10;99.90;;;;;;5090310;27;20043;-46
2022/12/11 10:29:27;;;;;;;97.00;22.67;;;0.40;99.90;;;;;;5123773;27;20062;-46
2022/12/11 10:31:54;;;;;;;97.20;21.85;;;1.00;99.90;;;;;;5122994;27;20043;-46
2022/12/11 10:34:36;;;;;;;96.95;23.52;;;1.20;99.90;;;;;;5103100;27;20046;-45
2022/12/11 10:37:02;;;;;;;102.22;24.23;;;1.10;99.90;;;;;;5109813;27;20027;-46
2022/12/11 10:39:28;;;;;;;87.03;23.27;;;0.50;99.90;;;;;;5123283;27;20189;-49
2022/12/11 10:41:55;;;;;;;82.32;22.85;;;1.20;99.90;;;;;;5121870;27;20510;-47
2022/12/11 10:44:29;;;;;;;96.45;23.45;;;0.50;99.90;;;;;;5122917;27;20169;-49
2022/12/11 10:47:12;;;;;;;;;;;0.50;99.90;;;;;;5120825;27;20035;-44
2022/12/11 10:49:42;;;;;;;80.78;19.10;;;1.10;99.90;;;;;;5120649;27;19919;-46
2022/12/11 10:52:23;;;;;;;83.55;20.90;;;0.50;99.90;;;;;;5104030;27;20525;-46
2022/12/11 10:55:00;;;;;;;75.85;20.80;;;1.00;99.90;;;;;;5121610;27;20058;-46
2022/12/11 10:57:33;;;;;;;92.13;22.38;;;1.20;99.90;;;;;;5122201;27;20063;-44
2022/12/11 11:00:00;;;;;;;85.32;22.02;;;0.50;99.90;;;;;;5104476;27;20051;-46
2022/12/11 11:02:34;;;;;;;80.88;22.67;;;1.00;99.90;;;;;;5120801;27;20035;-45
2022/12/11 11:05:14;;;;;;;88.05;23.42;;;1.10;99.90;;;;;;5123341;27;20054;-45
2022/12/11 11:07:40;;;;;;;90.18;22.42;;;0.80;99.90;;;;;;5102391;27;20023;-44
2022/12/11 11:10:08;;;;;;;91.03;23.45;;;0.50;99.90;;;;;;5102305;27;20477;-46
2022/12/11 11:12:38;;;;;;;96.03;23.52;;;0.70;99.90;;;;;;5102624;27;20043;-44
2022/12/11 11:15:14;;;;;;;81.78;25.10;;;0.60;99.90;;;;;;5098815;27;20063;-45
2022/12/11 11:17:55;;;;;;;83.65;22.30;;;1.10;99.90;;;;;;5097717;27;20603;-46
2022/12/11 11:20:24;;;;;;;81.05;22.55;;;0.70;99.90;;;;;;5121154;27;20043;-43
2022/12/11 11:22:54;;;;;;;71.80;23.13;;;1.30;99.90;;;;;;5123678;27;20039;-46
2022/12/11 11:25:28;;;;;;;72.30;22.80;;;0.80;99.90;;;;;;5120714;27;20088;-45
2022/12/11 11:27:57;;;;;;;71.25;22.92;;;0.90;99.90;;;;;;5118322;27;20074;-44
2022/12/11 11:30:32;;;;;;;68.43;22.98;;;1.20;99.90;;;;;;5116723;27;20382;-43
2022/12/11 11:33:03;;;;;;;63.65;21.92;;;0.80;99.90;;;;;;5118413;27;20046;-44
2022/12/11 11:35:30;;;;;;;58.42;20.50;;;0.80;99.90;;;;;;5122689;27;20092;-46
2022/12/11 11:38:12;;;;;;;59.55;21.80;;;1.10;99.90;;;;;;5122788;27;20114;-42
2022/12/11 11:41:02;;;;;;;63.22;19.95;;;0.80;99.90;;;;;;5122242;27;20521;-44
2022/12/11 11:43:53;;;;;;;55.92;20.20;;;0.70;99.90;;;;;;5121280;27;20952;-46
2022/12/11 11:46:53;;;;;;;63.15;21.38;;;0.90;99.90;;;;;;5122692;27;20367;-44
2022/12/11 11:49:45;;;;;;;55.55;21.25;;;0.80;99.90;;;;;;5102751;27;20039;-43
2022/12/11 11:52:18;;;;;;;56.95;20.20;;;1.00;99.90;;;;;;5122683;27;20043;-43
2022/12/11 11:55:15;;;;;;;59.72;20.95;;;0.60;99.90;;;;;;5121713;27;20063;-44
2022/12/11 11:58:24;;;;;;;58.30;20.77;;;1.00;99.90;;;;;;5105696;27;20047;-46
2022/12/11 12:00:53;;;;;;;57.63;21.67;;;0.70;99.90;;;;;;5118292;27;20075;-42
2022/12/11 12:03:20;;;;;;;58.58;22.23;;;1.00;99.90;;;;;;5102213;27;20046;-43
2022/12/11 12:06:08;;;;;;;54.38;20.60;;;0.80;99.90;;;;;;5119953;27;20023;-46
2022/12/11 12:08:52;;;;;;;50.10;21.75;;;0.60;99.90;;;;;;5122154;27;20031;-43
2022/12/11 12:11:55;;;;;;;56.00;21.27;;;0.80;99.90;;;;;;5121025;27;20322;-43
2022/12/11 12:14:25;;;;;;;53.42;21.27;;;0.60;99.90;;;;;;5122109;27;20490;-44
2022/12/11 12:16:58;;;;;;;54.60;21.20;;;0.90;99.90;;;;;;5121000;27;20042;-47
2022/12/11 12:19:43;;;;;;;48.05;20.27;;;0.80;99.90;;;;;;5120161;27;20467;-44
2022/12/11 12:22:46;;;;;;;51.08;19.35;;;0.50;99.90;;;;;;5120133;27;20039;-45
2022/12/11 12:25:35;;;;;;;46.88;18.67;;;0.50;99.90;;;;;;5103834;27;20060;-46
2022/12/11 12:28:19;;;;;;;44.83;17.67;;;0.60;99.90;;;;;;5120540;27;20039;-44
2022/12/11 12:31:12;;;;;;;44.33;17.60;;;0.50;99.90;;;;;;5124596;27;20074;-46
2022/12/11 12:33:56;;;;;;;42.97;17.38;;;0.60;99.90;;;;;;5109782;27;20046;-43
2022/12/11 12:36:46;;;;;;;40.63;17.13;;;0.50;99.90;;;;;;5126965;27;20039;-43
2022/12/11 12:39:28;;;;;;;40.42;16.15;;;0.70;99.90;;;;;;5106576;27;20078;-46
2022/12/11 12:42:12;;;;;;;41.47;17.02;;;0.60;99.90;;;;;;5129548;27;20035;-44
2022/12/11 12:44:58;;;;;;;36.75;15.82;;;0.60;99.90;;;;;;5130439;27;20082;-44
2022/12/11 12:47:27;;;;;;;43.28;17.65;;;0.60;99.90;;;;;;5130252;27;20449;-45
2022/12/11 12:49:54;;;;;;;39.85;16.17;;;0.60;99.90;;;;;;5131649;27;20035;-44
2022/12/11 12:52:41;;;;;;;39.17;16.48;;;0.80;99.90;;;;;;5130501;27;20034;-47
2022/12/11 12:55:12;;;;;;;45.20;18.17;;;0.60;99.90;;;;;;5130327;27;20498;-44